createdAt,value
2018-07-09T00:00:18.265Z,5.43
2018-07-09T00:02:47.401Z,4.50
2018-07-09T00:05:16.533Z,5.43
2018-07-09T00:07:46.470Z,7.43
2018-07-09T00:10:25.609Z,4.53
2018-07-09T00:12:54.736Z,9.80
2018-07-09T00:15:23.841Z,6.57
2018-07-09T00:17:52.978Z,5.03
2018-07-09T00:20:22.073Z,4.60
2018-07-09T00:22:51.194Z,5.10
2018-07-09T00:25:20.292Z,4.03
2018-07-09T00:27:49.382Z,5.23
2018-07-09T00:30:18.540Z,5.60
2018-07-09T00:32:47.681Z,5.80
2018-07-09T00:35:16.801Z,4.40
2018-07-09T00:37:45.909Z,4.60
2018-07-09T00:40:15.029Z,3.20
2018-07-09T00:42:44.469Z,6.63
2018-07-09T00:45:13.613Z,3.67
2018-07-09T00:47:42.756Z,8.80
2018-07-09T00:50:11.936Z,4.97
2018-07-09T00:52:41.060Z,7.43
2018-07-09T00:55:10.189Z,5.87
2018-07-09T00:57:39.529Z,6.03
2018-07-09T01:00:08.657Z,4.27
2018-07-09T01:02:37.769Z,4.17
2018-07-09T01:05:07.165Z,3.57
2018-07-09T01:07:36.695Z,6.73
2018-07-09T01:10:05.834Z,3.80
2018-07-09T01:12:34.927Z,3.10
2018-07-09T01:15:04.066Z,3.97
2018-07-09T01:17:33.181Z,4.63
2018-07-09T01:20:02.284Z,4.17
2018-07-09T01:22:31.427Z,5.33
2018-07-09T01:25:00.520Z,4.73
2018-07-09T01:27:29.622Z,4.73
2018-07-09T01:30:05.065Z,4.63
2018-07-09T01:32:34.537Z,5.77
2018-07-09T01:35:03.718Z,3.90
2018-07-09T01:37:32.833Z,5.30
2018-07-09T01:40:01.950Z,6.10
2018-07-09T01:42:31.054Z,5.43
2018-07-09T01:45:00.130Z,5.13
2018-07-09T01:47:29.209Z,7.40
2018-07-09T01:49:58.285Z,6.43
2018-07-09T01:52:27.601Z,3.60
2018-07-09T01:54:56.693Z,3.50
2018-07-09T01:57:25.765Z,6.30
2018-07-09T01:59:54.865Z,5.83
2018-07-09T02:02:24.189Z,8.47
2018-07-09T02:04:53.301Z,5.27
2018-07-09T02:07:22.405Z,5.47
2018-07-09T02:09:51.876Z,6.50
2018-07-09T02:12:21.009Z,6.07
2018-07-09T02:14:50.098Z,4.83
2018-07-09T02:17:19.197Z,6.33
2018-07-09T02:19:48.333Z,7.43
2018-07-09T02:22:17.458Z,7.97
2018-07-09T02:24:46.541Z,5.70
2018-07-09T02:27:15.629Z,5.37
2018-07-09T02:29:44.723Z,6.13
2018-07-09T02:32:13.809Z,5.53
2018-07-09T02:34:42.901Z,6.33
2018-07-09T02:37:11.997Z,6.27
2018-07-09T02:39:41.077Z,3.87
2018-07-09T02:42:10.193Z,7.40
2018-07-09T02:44:39.270Z,6.67
2018-07-09T02:47:08.365Z,7.67
2018-07-09T02:49:37.449Z,7.30
2018-07-09T02:52:06.597Z,5.47
2018-07-09T02:54:35.692Z,8.43
2018-07-09T02:57:04.818Z,11.10
2018-07-09T02:59:33.898Z,5.30
2018-07-09T03:02:03.033Z,5.77
2018-07-09T03:04:32.118Z,6.03
2018-07-09T03:07:01.214Z,4.47
2018-07-09T03:09:30.281Z,6.37
2018-07-09T03:11:59.377Z,6.53
2018-07-09T03:14:28.473Z,4.50
2018-07-09T03:16:57.578Z,8.60
2018-07-09T03:19:26.657Z,7.97
2018-07-09T03:21:55.765Z,6.83
2018-07-09T03:24:24.853Z,6.97
2018-07-09T03:26:53.949Z,4.27
2018-07-09T03:29:23.021Z,7.47
2018-07-09T03:31:52.105Z,7.03
2018-07-09T03:34:21.205Z,7.17
2018-07-09T03:36:50.297Z,8.57
2018-07-09T03:39:19.424Z,9.00
2018-07-09T03:41:48.525Z,8.87
2018-07-09T03:44:17.625Z,4.50
2018-07-09T03:46:46.697Z,7.90
2018-07-09T03:49:15.800Z,8.03
2018-07-09T03:51:44.905Z,6.73
2018-07-09T03:54:14.068Z,7.80
2018-07-09T03:56:43.162Z,7.90
2018-07-09T03:59:12.253Z,7.03
2018-07-09T04:01:41.329Z,11.00
2018-07-09T04:04:10.434Z,9.63
2018-07-09T04:06:39.531Z,6.37
2018-07-09T04:09:08.643Z,8.60
2018-07-09T04:11:37.717Z,7.83
2018-07-09T04:14:06.801Z,7.53
2018-07-09T04:16:35.969Z,8.37
2018-07-09T04:19:05.094Z,7.87
2018-07-09T04:21:34.198Z,6.50
2018-07-09T04:24:03.297Z,11.10
2018-07-09T04:26:32.394Z,9.63
2018-07-09T04:29:01.472Z,8.23
2018-07-09T04:31:30.564Z,8.63
2018-07-09T04:33:59.681Z,6.33
2018-07-09T04:36:28.790Z,8.60
2018-07-09T04:38:57.869Z,10.57
2018-07-09T04:41:26.961Z,9.97
2018-07-09T04:43:56.062Z,9.47
2018-07-09T04:46:25.225Z,8.07
2018-07-09T04:48:54.312Z,7.60
2018-07-09T04:51:23.405Z,8.47
2018-07-09T04:53:52.529Z,7.13
2018-07-09T04:56:21.605Z,9.00
2018-07-09T04:58:50.847Z,8.57
2018-07-09T05:01:19.929Z,9.00
2018-07-09T05:03:49.060Z,7.87
2018-07-09T05:06:18.145Z,9.03
2018-07-09T05:08:47.242Z,9.27
2018-07-09T05:11:16.341Z,12.60
2018-07-09T05:13:45.433Z,9.40
2018-07-09T05:16:14.517Z,8.20
2018-07-09T05:18:43.607Z,7.67
2018-07-09T05:21:12.685Z,10.23
2018-07-09T05:23:41.765Z,11.80
2018-07-09T05:26:10.873Z,9.50
2018-07-09T05:28:39.961Z,8.17
2018-07-09T05:31:09.060Z,11.17
2018-07-09T05:33:38.146Z,9.37
2018-07-09T05:36:07.278Z,11.47
2018-07-09T05:38:36.397Z,14.27
2018-07-09T05:41:05.510Z,10.53
2018-07-09T05:43:35.473Z,9.70
2018-07-09T05:46:05.313Z,9.17
2018-07-09T05:48:34.477Z,9.67
2018-07-09T05:51:03.590Z,11.70
2018-07-09T05:53:32.699Z,11.07
2018-07-09T05:56:01.805Z,12.17
2018-07-09T05:58:30.906Z,11.33
2018-07-09T06:01:00.103Z,11.47
2018-07-09T06:03:29.191Z,10.27
2018-07-09T06:05:58.305Z,14.40
2018-07-09T06:08:27.465Z,11.30
2018-07-09T06:10:56.561Z,12.53
2018-07-09T06:13:25.687Z,12.53
2018-07-09T06:15:54.766Z,10.10
2018-07-09T06:18:23.941Z,13.07
2018-07-09T06:20:53.037Z,11.43
2018-07-09T06:23:22.549Z,10.30
2018-07-09T06:25:51.666Z,12.10
2018-07-09T06:28:20.797Z,16.53
2018-07-09T06:30:49.865Z,9.97
2018-07-09T06:33:18.953Z,10.07
2018-07-09T06:35:48.068Z,11.20
2018-07-09T06:38:17.162Z,10.10
2018-07-09T06:40:46.309Z,10.20
2018-07-09T06:43:15.427Z,9.37
2018-07-09T06:45:44.549Z,7.53
2018-07-09T06:48:13.682Z,8.13
2018-07-09T06:50:42.746Z,7.87
2018-07-09T06:53:11.937Z,10.40
2018-07-09T06:55:41.085Z,7.83
2018-07-09T06:58:10.207Z,9.80
2018-07-09T07:00:39.365Z,8.33
2018-07-09T07:03:08.466Z,11.50
2018-07-09T07:05:37.561Z,9.53
2018-07-09T07:08:06.677Z,6.50
2018-07-09T07:10:35.777Z,7.37
2018-07-09T07:13:04.890Z,12.47
2018-07-09T07:15:34.047Z,6.37
2018-07-09T07:18:03.144Z,5.37
2018-07-09T07:20:32.231Z,8.70
2018-07-09T07:23:01.355Z,6.37
2018-07-09T07:25:30.475Z,6.33
2018-07-09T07:27:59.657Z,7.37
2018-07-09T07:30:28.801Z,6.50
2018-07-09T07:32:57.933Z,5.37
2018-07-09T07:35:27.074Z,6.10
2018-07-09T07:37:56.219Z,6.30
2018-07-09T07:40:25.309Z,5.10
2018-07-09T07:42:54.425Z,9.63
2018-07-09T07:45:23.520Z,7.97
2018-07-09T07:47:52.638Z,7.03
2018-07-09T07:50:21.752Z,5.17
2018-07-09T07:52:51.233Z,4.80
2018-07-09T07:55:20.344Z,4.47
2018-07-09T07:57:49.455Z,6.37
2018-07-09T08:00:18.553Z,5.90
2018-07-09T08:02:47.708Z,7.37
2018-07-09T08:05:16.809Z,6.20
2018-07-09T08:07:45.918Z,5.83
2018-07-09T08:10:15.010Z,5.30
2018-07-09T08:13:27.174Z,5.07
2018-07-09T08:15:13.218Z,7.60
2018-07-09T08:17:42.477Z,6.83
2018-07-09T08:20:11.613Z,10.27
2018-07-09T08:22:40.730Z,6.03
2018-07-09T08:25:09.888Z,6.87
2018-07-09T08:27:38.897Z,5.17
2018-07-09T08:30:08.214Z,6.30
2018-07-09T08:32:37.362Z,6.90
2018-07-09T08:35:06.513Z,4.47
2018-07-09T08:37:36.146Z,8.23
2018-07-09T08:40:05.353Z,6.53
2018-07-09T08:42:34.477Z,5.57
2018-07-09T08:45:03.655Z,6.90
2018-07-09T08:47:32.828Z,5.40
2018-07-09T08:50:01.983Z,4.97
2018-07-09T08:52:31.117Z,5.73
2018-07-09T08:55:00.237Z,4.60
2018-07-09T08:57:29.382Z,4.60
2018-07-09T08:59:58.495Z,5.57
2018-07-09T09:02:27.586Z,4.50
2018-07-09T09:04:56.677Z,3.83
2018-07-09T09:07:25.813Z,4.53
2018-07-09T09:09:54.897Z,5.90
2018-07-09T09:12:23.998Z,6.30
2018-07-09T09:14:53.264Z,4.87
2018-07-09T09:17:22.360Z,4.87
2018-07-09T09:19:51.476Z,5.47
2018-07-09T09:22:20.597Z,4.03
2018-07-09T09:24:49.692Z,5.67
2018-07-09T09:27:18.789Z,4.33
2018-07-09T09:29:47.909Z,5.17
2018-07-09T09:32:17.009Z,3.97
2018-07-09T09:34:46.105Z,2.87
2018-07-09T09:37:15.241Z,2.77
2018-07-09T09:39:44.340Z,4.80
2018-07-09T09:42:13.465Z,4.53
2018-07-09T09:44:42.714Z,3.53
2018-07-09T09:47:11.793Z,5.30
2018-07-09T09:49:40.937Z,4.77
2018-07-09T09:52:10.089Z,2.73
2018-07-09T09:54:39.189Z,4.83
2018-07-09T09:57:08.357Z,2.87
2018-07-09T09:59:37.476Z,2.73
2018-07-09T10:02:06.603Z,4.60
2018-07-09T10:04:35.724Z,2.67
2018-07-09T10:07:04.838Z,4.43
2018-07-09T10:09:33.961Z,2.93
2018-07-09T10:12:03.059Z,4.87
2018-07-09T10:14:33.006Z,4.53
2018-07-09T10:17:03.327Z,3.87
2018-07-09T10:19:32.441Z,4.20
2018-07-09T10:22:01.558Z,3.27
2018-07-09T10:24:30.678Z,2.93
2018-07-09T10:26:59.765Z,3.57
2018-07-09T10:29:29.115Z,4.57
2018-07-09T10:31:58.265Z,4.57
2018-07-09T10:34:27.356Z,5.07
2018-07-09T10:36:56.482Z,3.30
2018-07-09T10:39:25.582Z,4.63
2018-07-09T10:41:54.668Z,4.30
2018-07-09T10:44:24.133Z,3.77
2018-07-09T10:46:53.230Z,2.67
2018-07-09T10:49:22.389Z,5.20
2018-07-09T10:51:51.521Z,2.90
2018-07-09T10:54:20.600Z,3.53
2018-07-09T10:56:49.728Z,3.03
2018-07-09T10:59:18.837Z,5.17
2018-07-09T11:01:47.946Z,5.23
2018-07-09T11:04:17.061Z,4.03
2018-07-09T11:06:46.175Z,2.10
2018-07-09T11:09:15.325Z,2.10
2018-07-09T11:11:44.433Z,4.00
2018-07-09T11:14:13.533Z,6.40
2018-07-09T11:16:42.624Z,3.13
2018-07-09T11:19:11.758Z,3.10
2018-07-09T11:21:40.920Z,2.60
2018-07-09T11:24:09.954Z,2.83
2018-07-09T11:26:39.045Z,4.20
2018-07-09T11:29:08.155Z,1.77
2018-07-09T11:31:37.291Z,5.17
2018-07-09T11:34:06.418Z,2.10
2018-07-09T11:36:35.565Z,2.33
2018-07-09T11:39:05.442Z,2.10
2018-07-09T11:41:34.553Z,2.23
2018-07-09T11:44:03.697Z,1.60
2018-07-09T11:46:32.801Z,2.00
2018-07-09T11:49:01.885Z,2.10
2018-07-09T11:51:31.045Z,3.20
2018-07-09T11:54:00.177Z,6.07
2018-07-09T11:56:29.286Z,2.37
2018-07-09T11:58:58.441Z,2.87
2018-07-09T12:01:27.521Z,3.93
2018-07-09T12:03:56.671Z,3.10
2018-07-09T12:06:25.801Z,3.53
2018-07-09T12:08:54.905Z,3.20
2018-07-09T12:11:24.021Z,2.63
2018-07-09T12:13:53.089Z,3.77
2018-07-09T12:16:22.200Z,5.80
2018-07-09T12:18:51.334Z,3.93
2018-07-09T12:21:20.464Z,3.53
2018-07-09T12:23:49.562Z,2.87
2018-07-09T12:26:18.713Z,3.77
2018-07-09T12:28:47.865Z,3.90
2018-07-09T12:31:16.914Z,7.97
2018-07-09T12:33:46.037Z,4.13
2018-07-09T12:36:15.207Z,3.53
2018-07-09T12:38:44.255Z,2.80
2018-07-09T12:41:13.345Z,2.30
2018-07-09T12:43:42.511Z,3.00
2018-07-09T12:46:11.565Z,3.73
2018-07-09T12:48:40.653Z,3.43
2018-07-09T12:51:09.737Z,2.77
2018-07-09T12:53:38.873Z,2.93
2018-07-09T12:56:07.975Z,3.67
2018-07-09T12:58:37.097Z,4.73
2018-07-09T13:01:06.288Z,5.47
2018-07-09T13:03:35.418Z,2.30
2018-07-09T13:06:04.510Z,3.90
2018-07-09T13:08:33.624Z,2.17
2018-07-09T13:11:02.803Z,3.37
2018-07-09T13:13:31.913Z,2.40
2018-07-09T13:16:01.053Z,2.77
2018-07-09T13:18:30.172Z,4.70
2018-07-09T13:21:00.113Z,2.70
2018-07-09T13:23:29.217Z,3.50
2018-07-09T13:25:58.333Z,4.07
2018-07-09T13:28:27.453Z,4.33
2018-07-09T13:30:56.625Z,2.90
2018-07-09T13:33:25.810Z,2.93
2018-07-09T13:35:55.980Z,3.70
2018-07-09T13:38:25.161Z,4.07
2018-07-09T13:40:54.318Z,3.63
2018-07-09T13:43:23.456Z,4.23
2018-07-09T13:45:52.569Z,6.00
2018-07-09T13:48:21.723Z,4.07
2018-07-09T13:50:50.917Z,4.73
2018-07-09T13:53:20.105Z,7.07
2018-07-09T13:55:49.261Z,3.93
2018-07-09T13:58:18.444Z,6.33
2018-07-09T14:00:47.509Z,5.47
2018-07-09T14:03:16.594Z,4.27
2018-07-09T14:05:45.695Z,5.67
2018-07-09T14:08:14.812Z,4.07
2018-07-09T14:10:43.942Z,11.57
2018-07-09T14:13:13.087Z,7.47
2018-07-09T14:15:42.177Z,4.63
2018-07-09T14:18:11.373Z,7.33
2018-07-09T14:20:45.375Z,5.30
2018-07-09T14:23:16.822Z,5.97
2018-07-09T14:25:46.338Z,5.27
2018-07-09T14:28:15.430Z,6.83
2018-07-09T14:30:44.532Z,6.57
2018-07-09T14:33:13.634Z,4.67
2018-07-09T14:35:43.330Z,6.17
2018-07-09T14:38:12.511Z,4.37
2018-07-09T14:40:41.638Z,7.00
2018-07-09T14:43:10.736Z,6.73
2018-07-09T14:45:39.837Z,5.03
2018-07-09T14:48:09.185Z,4.87
2018-07-09T14:50:38.303Z,4.73
2018-07-09T14:53:07.377Z,3.90
2018-07-09T14:55:36.493Z,9.10
2018-07-09T14:58:05.609Z,4.97
2018-07-09T15:00:34.753Z,4.10
2018-07-09T15:03:03.923Z,6.03
2018-07-09T15:05:33.053Z,5.77
2018-07-09T15:08:02.169Z,7.97
2018-07-09T15:10:31.270Z,5.97
2018-07-09T15:13:00.365Z,5.97
2018-07-09T15:15:29.450Z,4.20
2018-07-09T15:17:58.589Z,4.67
2018-07-09T15:20:27.680Z,5.60
2018-07-09T15:22:56.782Z,6.17
2018-07-09T15:25:25.881Z,4.03
2018-07-09T15:27:54.985Z,3.70
2018-07-09T15:30:24.066Z,4.97
2018-07-09T15:32:53.180Z,7.60
2018-07-09T15:35:22.290Z,7.90
2018-07-09T15:37:51.393Z,3.97
2018-07-09T15:40:20.524Z,5.37
2018-07-09T15:42:49.605Z,4.83
2018-07-09T15:45:18.690Z,6.73
2018-07-09T15:47:47.803Z,5.10
2018-07-09T15:50:16.919Z,6.37
2018-07-09T15:52:46.049Z,3.40
2018-07-09T15:55:15.185Z,4.30
2018-07-09T15:57:44.910Z,5.57
2018-07-09T16:00:14.008Z,4.03
2018-07-09T16:02:43.129Z,4.83
2018-07-09T16:05:12.229Z,3.17
2018-07-09T16:07:41.417Z,3.77
2018-07-09T16:10:10.522Z,3.40
2018-07-09T16:12:39.652Z,4.40
2018-07-09T16:15:08.781Z,4.47
2018-07-09T16:17:37.892Z,5.20
2018-07-09T16:20:07.037Z,3.10
2018-07-09T16:22:36.149Z,4.03
2018-07-09T16:25:05.256Z,5.80
2018-07-09T16:27:34.385Z,3.37
2018-07-09T16:30:03.553Z,4.60
2018-07-09T16:32:32.662Z,3.63
2018-07-09T16:35:01.737Z,3.77
2018-07-09T16:37:30.934Z,4.83
2018-07-09T16:40:00.019Z,3.60
2018-07-09T16:42:29.120Z,3.33
2018-07-09T16:44:58.173Z,7.10
2018-07-09T16:47:27.347Z,7.27
2018-07-09T16:49:56.458Z,7.33
2018-07-09T16:52:25.561Z,7.70
2018-07-09T16:54:54.754Z,5.23
2018-07-09T16:57:23.789Z,2.70
2018-07-09T16:59:52.885Z,5.87
2018-07-09T17:02:22.001Z,3.10
2018-07-09T17:04:51.097Z,3.47
2018-07-09T17:07:20.190Z,3.50
2018-07-09T17:09:49.285Z,3.27
2018-07-09T17:12:18.391Z,3.10
2018-07-09T17:14:47.501Z,5.00
2018-07-09T17:17:16.600Z,4.60
2018-07-09T17:19:45.701Z,3.77
2018-07-09T17:22:14.785Z,3.83
2018-07-09T17:24:43.909Z,6.13
2018-07-09T17:27:13.022Z,6.37
2018-07-09T17:29:42.091Z,5.33
2018-07-09T17:32:11.336Z,4.03
2018-07-09T17:34:40.361Z,8.77
2018-07-09T17:37:09.473Z,5.10
2018-07-09T17:39:38.573Z,5.23
2018-07-09T17:42:07.705Z,4.50
2018-07-09T17:44:36.813Z,7.53
2018-07-09T17:47:05.989Z,4.77
2018-07-09T17:49:35.290Z,4.40
2018-07-09T17:52:04.393Z,5.13
2018-07-09T17:54:33.481Z,8.33
2018-07-09T17:57:02.621Z,6.10
2018-07-09T17:59:31.717Z,4.80
2018-07-09T18:02:02.753Z,7.40
2018-07-09T18:04:31.884Z,4.70
2018-07-09T18:07:00.993Z,6.23
2018-07-09T18:09:30.090Z,3.80
2018-07-09T18:11:59.213Z,7.63
2018-07-09T18:14:28.321Z,4.50
2018-07-09T18:16:57.415Z,3.53
2018-07-09T18:19:26.542Z,5.20
2018-07-09T18:21:55.633Z,5.53
2018-07-09T18:24:24.793Z,3.63
2018-07-09T18:26:53.931Z,6.53
2018-07-09T18:29:23.061Z,3.30
2018-07-09T18:31:52.221Z,3.20
2018-07-09T18:34:21.377Z,3.43
2018-07-09T18:36:53.901Z,3.17
2018-07-09T18:39:23.122Z,3.07
2018-07-09T18:41:52.346Z,3.83
2018-07-09T18:44:21.558Z,4.43
2018-07-09T18:46:50.681Z,2.83
2018-07-09T18:49:19.791Z,4.27
2018-07-09T18:51:48.925Z,6.90
2018-07-09T18:54:18.109Z,3.13
2018-07-09T18:56:47.253Z,4.50
2018-07-09T18:59:16.337Z,3.17
2018-07-09T19:01:45.452Z,2.80
2018-07-09T19:04:14.551Z,3.77
2018-07-09T19:06:56.482Z,5.00
2018-07-09T19:09:26.409Z,3.60
2018-07-09T19:11:56.117Z,3.60
2018-07-09T19:14:42.453Z,3.27
2018-07-09T19:17:50.906Z,6.07
2018-07-09T19:21:32.194Z,7.43
2018-07-09T19:24:00.667Z,2.97
2018-07-09T19:26:28.672Z,2.93
2018-07-09T19:28:56.674Z,5.20
2018-07-09T19:31:24.667Z,3.07
2018-07-09T19:33:52.674Z,4.03
2018-07-09T19:36:20.672Z,3.33
2018-07-09T19:38:48.689Z,3.13
2018-07-09T19:41:16.725Z,3.10
2018-07-09T19:43:44.725Z,3.50
2018-07-09T19:46:12.717Z,5.00
2018-07-09T19:48:40.722Z,5.83
2018-07-09T19:51:08.725Z,4.97
2018-07-09T19:53:36.713Z,3.43
2018-07-09T19:56:04.721Z,2.83
2018-07-09T19:58:32.707Z,2.93
2018-07-09T20:01:00.697Z,5.77
2018-07-09T20:03:28.766Z,4.10
2018-07-09T20:05:56.688Z,5.67
2018-07-09T20:08:30.921Z,7.30
2018-07-09T20:11:04.238Z,6.13
2018-07-09T20:13:51.535Z,5.97
2018-07-09T20:16:24.893Z,5.23
2018-07-09T20:18:53.520Z,3.97
2018-07-09T20:21:21.527Z,3.07
2018-07-09T20:23:49.532Z,4.60
2018-07-09T20:26:17.519Z,5.03
2018-07-09T20:28:45.501Z,5.33
2018-07-09T20:31:13.511Z,4.20
2018-07-09T20:33:41.519Z,3.80
2018-07-09T20:36:09.517Z,6.00
2018-07-09T20:38:37.509Z,5.87
2018-07-09T20:41:05.521Z,3.70
2018-07-09T20:43:33.597Z,5.70
2018-07-09T20:46:01.593Z,4.73
2018-07-09T20:48:29.603Z,3.93
2018-07-09T20:50:57.601Z,4.10
2018-07-09T20:53:25.617Z,5.57
2018-07-09T20:55:53.637Z,5.00
2018-07-09T20:58:21.633Z,4.50
2018-07-09T21:00:49.625Z,4.63
2018-07-09T21:03:17.621Z,6.97
2018-07-09T21:05:45.614Z,5.13
2018-07-09T21:08:13.613Z,5.23
2018-07-09T21:10:41.601Z,7.67
2018-07-09T21:13:09.601Z,6.43
2018-07-09T21:15:37.660Z,4.47
2018-07-09T21:18:05.601Z,7.70
2018-07-09T21:20:33.590Z,5.10
2018-07-09T21:23:01.590Z,5.70
2018-07-09T21:25:29.577Z,6.30
2018-07-09T21:27:57.577Z,6.37
2018-07-09T21:30:25.599Z,3.97
2018-07-09T21:32:53.617Z,4.13
2018-07-09T21:35:21.606Z,7.03
2018-07-09T21:37:49.679Z,6.17
2018-07-09T21:40:17.613Z,7.90
2018-07-09T21:42:45.605Z,8.70
2018-07-09T21:45:13.609Z,4.57
2018-07-09T21:47:41.597Z,5.90
2018-07-09T21:50:09.610Z,4.83
2018-07-09T21:52:37.597Z,5.87
2018-07-09T21:55:05.865Z,8.67
2018-07-09T21:57:34.205Z,10.00
2018-07-09T22:00:02.206Z,8.27
2018-07-09T22:02:30.213Z,7.27
2018-07-09T22:04:58.198Z,8.53
2018-07-09T22:07:26.189Z,9.10
2018-07-09T22:09:54.181Z,9.83
2018-07-09T22:12:22.186Z,11.20
2018-07-09T22:14:50.190Z,8.80
2018-07-09T22:17:18.182Z,12.13
2018-07-09T22:19:46.173Z,7.47
2018-07-09T22:22:14.173Z,10.47
2018-07-09T22:24:42.204Z,10.47
2018-07-09T22:27:10.167Z,8.47
2018-07-09T22:29:38.152Z,9.30
2018-07-09T22:32:07.268Z,7.70
2018-07-09T22:34:36.352Z,11.00
2018-07-09T22:37:05.460Z,11.07
2018-07-09T22:39:34.561Z,10.17
2018-07-09T22:42:03.681Z,11.70
2018-07-09T22:44:32.801Z,14.37
2018-07-09T22:47:01.912Z,15.47
2018-07-09T22:49:31.021Z,15.40
2018-07-09T22:52:00.126Z,13.50
2018-07-09T22:54:29.264Z,15.70
2018-07-09T22:56:58.375Z,16.87
2018-07-09T22:59:27.499Z,14.40
2018-07-09T23:01:56.600Z,14.97
2018-07-09T23:04:25.697Z,14.70
2018-07-09T23:06:54.821Z,14.80
2018-07-09T23:11:44.809Z,15.30
2018-07-09T23:14:38.994Z,12.40
2018-07-09T23:17:19.329Z,13.97
2018-07-09T23:22:02.973Z,14.40
2018-07-09T23:24:30.965Z,7.13
2018-07-09T23:26:59.317Z,8.20
2018-07-09T23:29:27.309Z,7.93
2018-07-09T23:31:55.332Z,7.60
2018-07-09T23:34:23.325Z,9.67
2018-07-09T23:36:51.321Z,8.03
2018-07-09T23:39:19.325Z,12.30
2018-07-09T23:41:47.352Z,12.13
2018-07-09T23:44:15.353Z,8.27
2018-07-09T23:46:43.350Z,6.83
2018-07-09T23:49:11.341Z,6.43
2018-07-09T23:51:39.335Z,5.53
2018-07-09T23:54:07.326Z,5.90
2018-07-09T23:56:48.249Z,7.03
